| time (UTC) | temp F | wind direction | speed knots | gust knots | rain 1hr in | rain 24hr in | rain mn in | humidity % | barometer mb |
| 20260508095020 | 42 | 0 | 0.0 | 2.6 | 0.00 | 0.00 | 0.00 | 89 | 1015.5 |
| 20260508094530 | 42 | 355 | 0.9 | 2.6 | 0.00 | 0.00 | 0.00 | 90 | 1015.5 |
| 20260508094016 | 42 | 355 | 1.7 | 3.5 | 0.00 | 0.00 | 0.00 | 89 | 1015.5 |
| 20260508093516 | 42 | 355 | 0.9 | 3.5 | 0.00 | 0.00 | 0.00 | 89 | 1015.7 |
| 20260508093033 | 42 | 360 | 2.6 | 5.2 | 0.00 | 0.00 | 0.00 | 88 | 1015.8 |
| 20260508092517 | 42 | 345 | 2.6 | 7.0 | 0.00 | 0.00 | 0.00 | 88 | 1015.9 |
| 20260508092016 | 42 | 343 | 3.5 | 7.8 | 0.00 | 0.00 | 0.00 | 87 | 1015.9 |
| 20260508091530 | 43 | 350 | 4.3 | 7.8 | 0.00 | 0.00 | 0.00 | 87 | 1016.1 |
| 20260508091022 | 43 | 345 | 3.5 | 5.2 | 0.00 | 0.00 | 0.00 | 87 | 1016.1 |
| 20260508090517 | 43 | 342 | 3.5 | 8.7 | 0.00 | 0.00 | 0.00 | 87 | 1016.1 |
| 20260508090041 | 43 | 336 | 2.6 | 8.7 | 0.00 | 0.00 | 0.00 | 87 | 1016.1 |
| 20260508085515 | 43 | 309 | 4.3 | 9.6 | 0.00 | 0.00 | 0.00 | 88 | 1016.1 |
| 20260508085015 | 43 | 300 | 5.2 | 9.6 | 0.00 | 0.00 | 0.00 | 88 | 1016.2 |
| 20260508084530 | 43 | 286 | 6.1 | 8.7 | 0.00 | 0.00 | 0.00 | 89 | 1016.2 |
| 20260508084016 | 42 | 293 | 5.2 | 7.8 | 0.00 | 0.00 | 0.00 | 89 | 1016.1 |
| 20260508083517 | 42 | 295 | 4.3 | 7.0 | 0.00 | 0.00 | 0.00 | 89 | 1016.1 |
| 20260508083038 | 41 | 287 | 4.3 | 7.0 | 0.00 | 0.00 | 0.00 | 89 | 1016.1 |
| 20260508082522 | 41 | 286 | 5.2 | 7.0 | 0.00 | 0.00 | 0.00 | 88 | 1016.2 |
| 20260508082015 | 41 | 284 | 5.2 | 7.0 | 0.00 | 0.00 | 0.00 | 88 | 1016.3 |
| 20260508081535 | 41 | 279 | 5.2 | 7.0 | 0.00 | 0.00 | 0.00 | 87 | 1016.2 |
| 20260508081020 | 42 | 275 | 5.2 | 6.1 | 0.00 | 0.00 | 0.00 | 87 | 1016.3 |
| 20260508080517 | 42 | 274 | 5.2 | 7.0 | 0.00 | 0.00 | 0.00 | 87 | 1016.4 |
| 20260508080034 | 42 | 274 | 5.2 | 7.0 | 0.00 | 0.00 | 0.00 | 86 | 1016.4 |
| 20260508075516 | 43 | 275 | 4.3 | 6.1 | 0.00 | 0.00 | 0.00 | 87 | 1016.4 |
| 20260508075016 | 43 | 254 | 3.5 | 6.1 | 0.00 | 0.00 | 0.00 | 86 | 1016.3 |
| 20260508074532 | 43 | 261 | 4.3 | 6.1 | 0.00 | 0.00 | 0.00 | 85 | 1016.5 |
| 20260508074016 | 43 | 246 | 2.6 | 5.2 | 0.00 | 0.00 | 0.00 | 85 | 1016.3 |
| 20260508073519 | 44 | 228 | 2.6 | 7.8 | 0.00 | 0.00 | 0.00 | 84 | 1016.1 |
| 20260508073033 | 44 | 262 | 2.6 | 7.8 | 0.00 | 0.00 | 0.00 | 84 | 1016.3 |
| 20260508072515 | 44 | 196 | 5.2 | 7.8 | 0.00 | 0.00 | 0.00 | 83 | 1016.1 |
| 20260508072016 | 45 | 246 | 2.6 | 4.3 | 0.00 | 0.00 | 0.00 | 84 | 1016.2 |
| 20260508071532 | 45 | 246 | 2.6 | 6.1 | 0.00 | 0.00 | 0.00 | 83 | 1016.1 |
| 20260508071015 | 45 | 199 | 3.5 | 7.0 | 0.00 | 0.00 | 0.00 | 83 | 1016.2 |
| 20260508070516 | 46 | 139 | 3.5 | 7.0 | 0.00 | 0.00 | 0.00 | 83 | 1016.0 |
| 20260508070032 | 46 | 132 | 4.3 | 7.0 | 0.00 | 0.00 | 0.00 | 82 | 1015.9 |
| 20260508065515 | 46 | 112 | 3.5 | 6.1 | 0.00 | 0.00 | 0.00 | 81 | 1015.9 |
| 20260508065016 | 47 | 107 | 3.5 | 8.7 | 0.00 | 0.00 | 0.00 | 81 | 1016.1 |
| 20260508064551 | 47 | 22 | 4.3 | 13.0 | 0.00 | 0.00 | 0.00 | 80 | 1016.7 |
| 20260508064016 | 47 | 16 | 6.1 | 14.8 | 0.00 | 0.00 | 0.00 | 80 | 1017.1 |
| 20260508063516 | 47 | 344 | 8.7 | 14.8 | 0.00 | 0.00 | 0.00 | 79 | 1017.5 |
| 20260508063032 | 47 | 333 | 8.7 | 14.8 | 0.00 | 0.00 | 0.00 | 78 | 1017.9 |
| 20260508062516 | 47 | 351 | 7.8 | 12.2 | 0.00 | 0.00 | 0.00 | 78 | 1017.5 |
| 20260508062013 | 47 | 9 | 4.3 | 7.8 | 0.00 | 0.00 | 0.00 | 77 | 1016.6 |
| 20260508061532 | 47 | 66 | 6.1 | 7.8 | 0.00 | 0.00 | 0.00 | 77 | 1016.2 |
| 20260508061016 | 47 | 82 | 6.1 | 8.7 | 0.00 | 0.00 | 0.00 | 77 | 1015.9 |
| 20260508060518 | 47 | 88 | 7.0 | 8.7 | 0.00 | 0.00 | 0.00 | 77 | 1015.9 |
| 20260508060036 | 47 | 90 | 7.0 | 8.7 | 0.00 | 0.00 | 0.00 | 76 | 1015.9 |
| 20260508055515 | 48 | 97 | 7.0 | 9.6 | 0.00 | 0.00 | 0.00 | 76 | 1015.8 |
| 20260508055018 | 48 | 96 | 7.0 | 10.4 | 0.00 | 0.00 | 0.00 | 75 | 1015.7 |
| 20260508054548 | 48 | 86 | 7.8 | 10.4 | 0.00 | 0.00 | 0.00 | 76 | 1015.8 |
| 20260508054016 | 48 | 86 | 7.8 | 10.4 | 0.00 | 0.00 | 0.00 | 76 | 1015.8 |
| 20260508053515 | 48 | 83 | 7.0 | 12.2 | 0.00 | 0.00 | 0.00 | 76 | 1015.8 |
| 20260508053032 | 48 | 91 | 7.8 | 12.2 | 0.00 | 0.00 | 0.00 | 75 | 1015.8 |
| 20260508052515 | 49 | 87 | 9.6 | 12.2 | 0.00 | 0.00 | 0.00 | 73 | 1015.8 |
| 20260508052019 | 49 | 78 | 7.8 | 9.6 | 0.00 | 0.00 | 0.00 | 72 | 1016.1 |
| 20260508051532 | 49 | 62 | 6.1 | 9.6 | 0.00 | 0.00 | 0.00 | 73 | 1016.7 |
| 20260508051017 | 49 | 53 | 7.8 | 9.6 | 0.00 | 0.00 | 0.00 | 73 | 1016.9 |
| 20260508050516 | 49 | 36 | 7.8 | 9.6 | 0.00 | 0.00 | 0.00 | 73 | 1016.7 |
| 20260508050036 | 49 | 46 | 8.7 | 9.6 | 0.00 | 0.00 | 0.00 | 73 | 1016.5 |
| 20260508045515 | 49 | 49 | 7.8 | 11.3 | 0.00 | 0.00 | 0.00 | 72 | 1016.3 |
| 20260508045016 | 49 | 62 | 7.8 | 11.3 | 0.00 | 0.00 | 0.00 | 71 | 1016.0 |
| 20260508044532 | 49 | 65 | 9.6 | 11.3 | 0.00 | 0.00 | 0.00 | 71 | 1015.8 |
| 20260508044016 | 49 | 69 | 9.6 | 11.3 | 0.00 | 0.00 | 0.00 | 70 | 1015.7 |
| 20260508043515 | 49 | 67 | 7.8 | 12.2 | 0.00 | 0.00 | 0.00 | 70 | 1015.8 |
| 20260508043042 | 50 | 74 | 7.8 | 13.9 | 0.00 | 0.00 | 0.00 | 69 | 1015.7 |
| 20260508042515 | 50 | 67 | 9.6 | 13.9 | 0.00 | 0.00 | 0.00 | 68 | 1015.7 |
| 20260508042012 | 51 | 64 | 10.4 | 17.4 | 0.00 | 0.00 | 0.00 | 67 | 1015.6 |
| 20260508041534 | 51 | 64 | 11.3 | 18.2 | 0.00 | 0.00 | 0.00 | 66 | 1015.8 |
| 20260508041016 | 51 | 67 | 13.9 | 18.2 | 0.00 | 0.00 | 0.00 | 64 | 1015.7 |
| 20260508040516 | 52 | 63 | 14.8 | 18.2 | 0.00 | 0.00 | 0.00 | 63 | 1015.8 |
| 20260508040041 | 52 | 59 | 13.0 | 20.0 | 0.00 | 0.00 | 0.00 | 61 | 1015.9 |
| 20260508035521 | 53 | 49 | 10.4 | 20.0 | 0.00 | 0.00 | 0.00 | 60 | 1016.0 |
| 20260508035016 | 53 | 33 | 9.6 | 20.0 | 0.00 | 0.00 | 0.00 | 59 | 1016.1 |
| 20260508034534 | 55 | 53 | 14.8 | 20.0 | 0.00 | 0.00 | 0.00 | 55 | 1016.3 |
| 20260508034015 | 56 | 38 | 5.2 | 11.3 | 0.00 | 0.00 | 0.00 | 47 | 1016.2 |
| 20260508033515 | 57 | 136 | 4.3 | 20.0 | 0.00 | 0.00 | 0.00 | 46 | 1016.0 |
| 20260508033034 | 57 | 200 | 5.2 | 24.3 | 0.00 | 0.00 | 0.00 | 44 | 1016.1 |
| 20260508032517 | 55 | 225 | 13.0 | 24.3 | 0.00 | 0.00 | 0.00 | 51 | 1015.9 |
| 20260508032017 | 54 | 213 | 5.2 | 7.0 | 0.00 | 0.00 | 0.00 | 56 | 1016.3 |
| 20260508031530 | 54 | 205 | 3.5 | 5.2 | 0.00 | 0.00 | 0.00 | 54 | 1016.1 |
| 20260508031015 | 54 | 217 | 3.5 | 4.3 | 0.00 | 0.00 | 0.00 | 54 | 1015.9 |
| 20260508030520 | 54 | 217 | 2.6 | 4.3 | 0.00 | 0.00 | 0.00 | 54 | 1015.7 |
| 20260508030032 | 54 | 230 | 2.6 | 4.3 | 0.00 | 0.00 | 0.00 | 53 | 1015.6 |
| 20260508025517 | 54 | 225 | 2.6 | 7.0 | 0.00 | 0.00 | 0.00 | 54 | 1015.5 |
| 20260508025016 | 54 | 245 | 2.6 | 7.0 | 0.00 | 0.00 | 0.00 | 54 | 1015.5 |
| 20260508024532 | 54 | 256 | 2.6 | 7.8 | 0.00 | 0.00 | 0.00 | 54 | 1015.5 |
| 20260508024016 | 55 | 290 | 4.3 | 7.8 | 0.00 | 0.00 | 0.00 | 54 | 1015.7 |
| 20260508023516 | 55 | 269 | 3.5 | 7.8 | 0.00 | 0.00 | 0.00 | 53 | 1015.7 |
| 20260508023032 | 56 | 308 | 2.6 | 13.0 | 0.00 | 0.00 | 0.00 | 52 | 1015.6 |
| 20260508022515 | 56 | 352 | 8.7 | 17.4 | 0.00 | 0.00 | 0.00 | 51 | 1015.5 |
| 20260508022016 | 56 | 37 | 9.6 | 20.0 | 0.00 | 0.00 | 0.00 | 51 | 1015.3 |
| 20260508021530 | 55 | 22 | 13.9 | 20.0 | 0.00 | 0.00 | 0.00 | 52 | 1015.0 |
| 20260508021022 | 55 | 13 | 13.0 | 18.2 | 0.00 | 0.00 | 0.00 | 54 | 1014.7 |
| 20260508020515 | 56 | 26 | 13.0 | 18.2 | 0.00 | 0.00 | 0.00 | 53 | 1014.8 |
| 20260508020030 | 56 | 30 | 13.9 | 20.0 | 0.00 | 0.00 | 0.00 | 51 | 1014.6 |
| 20260508015515 | 57 | 30 | 13.9 | 24.3 | 0.00 | 0.00 | 0.00 | 48 | 1014.5 |
| 20260508015019 | 57 | 36 | 15.6 | 24.3 | 0.00 | 0.00 | 0.00 | 46 | 1014.3 |
| 20260508014532 | 58 | 32 | 16.5 | 24.3 | 0.00 | 0.00 | 0.00 | 42 | 1014.1 |
| 20260508014016 | 59 | 32 | 8.7 | 11.3 | 0.00 | 0.00 | 0.00 | 39 | 1014.1 |
| 20260508013515 | 59 | 24 | 8.7 | 10.4 | 0.00 | 0.00 | 0.00 | 37 | 1014.0 |
| 20260508013032 | 60 | 20 | 7.0 | 10.4 | 0.00 | 0.00 | 0.00 | 36 | 1014.0 |
| 20260508012519 | 59 | 49 | 6.1 | 10.4 | 0.00 | 0.00 | 0.00 | 34 | 1013.9 |
| 20260508012016 | 60 | 12 | 1.7 | 4.3 | 0.00 | 0.00 | 0.00 | 37 | 1013.8 |
| 20260508011541 | 60 | 338 | 0.0 | 2.6 | 0.00 | 0.00 | 0.00 | 37 | 1013.7 |
| 20260508011015 | 60 | 313 | 0.9 | 3.5 | 0.00 | 0.00 | 0.00 | 37 | 1013.8 |
| 20260508010515 | 60 | 309 | 1.7 | 3.5 | 0.00 | 0.00 | 0.00 | 39 | 1013.8 |
| 20260508010038 | 60 | 308 | 2.6 | 4.3 | 0.00 | 0.00 | 0.00 | 39 | 1013.8 |
| 20260508005515 | 61 | 306 | 1.7 | 5.2 | 0.00 | 0.00 | 0.00 | 38 | 1013.8 |
| 20260508005017 | 61 | 302 | 2.6 | 7.8 | 0.00 | 0.00 | 0.00 | 34 | 1013.8 |
| 20260508004538 | 61 | 338 | 3.5 | 7.8 | 0.00 | 0.00 | 0.00 | 34 | 1013.6 |
| 20260508004014 | 62 | 320 | 3.5 | 12.2 | 0.00 | 0.00 | 0.00 | 33 | 1013.7 |
| 20260508003516 | 63 | 301 | 4.3 | 12.2 | 0.00 | 0.00 | 0.00 | 32 | 1013.6 |
| 20260508003030 | 64 | 322 | 6.1 | 12.2 | 0.00 | 0.00 | 0.00 | 31 | 1013.5 |
| 20260508002516 | 65 | 297 | 7.8 | 12.2 | 0.00 | 0.00 | 0.00 | 29 | 1013.5 |
| 20260508002016 | 65 | 288 | 7.8 | 13.9 | 0.00 | 0.00 | 0.00 | 28 | 1013.5 |
| 20260508001534 | 65 | 298 | 8.7 | 13.9 | 0.00 | 0.00 | 0.00 | 27 | 1013.6 |
| 20260508001017 | 65 | 287 | 9.6 | 13.9 | 0.00 | 0.00 | 0.00 | 27 | 1013.6 |
| 20260508000517 | 66 | 275 | 9.6 | 13.9 | 0.00 | 0.00 | 0.00 | 30 | 1013.6 |
| 20260508000030 | 66 | 298 | 7.8 | 14.8 | 0.00 | 0.00 | 0.00 | 27 | 1013.6 |
| 20260507235516 | 67 | 311 | 8.7 | 16.5 | 0.00 | 0.00 | 0.00 | 27 | 1013.5 |
| 20260507235016 | 67 | 267 | 11.3 | 16.5 | 0.00 | 0.00 | 0.00 | 27 | 1013.5 |
| 20260507234541 | 67 | 292 | 11.3 | 15.6 | 0.00 | 0.00 | 0.00 | 28 | 1013.6 |
| 20260507234015 | 67 | 281 | 9.6 | 14.8 | 0.00 | 0.00 | 0.00 | 27 | 1013.6 |
| 20260507233516 | 67 | 318 | 8.7 | 17.4 | 0.00 | 0.00 | 0.00 | 28 | 1013.6 |
| 20260507233034 | 67 | 271 | 7.0 | 17.4 | 0.00 | 0.00 | 0.00 | 27 | 1013.6 |
| 20260507232519 | 67 | 273 | 12.2 | 17.4 | 0.00 | 0.00 | 0.00 | 27 | 1013.6 |
| 20260507232016 | 67 | 278 | 8.7 | 17.4 | 0.00 | 0.00 | 0.00 | 28 | 1013.7 |
| 20260507231537 | 67 | 306 | 12.2 | 22.6 | 0.00 | 0.00 | 0.00 | 27 | 1013.8 |
| 20260507231016 | 66 | 281 | 13.9 | 23.5 | 0.00 | 0.00 | 0.00 | 27 | 1013.8 |
| 20260507230516 | 65 | 292 | 13.9 | 23.5 | 0.00 | 0.00 | 0.00 | 28 | 1013.8 |
| 20260507230032 | 66 | 282 | 13.0 | 18.2 | 0.00 | 0.00 | 0.00 | 27 | 1013.7 |
| 20260507225516 | 65 | 313 | 12.2 | 18.2 | 0.00 | 0.00 | 0.00 | 28 | 1013.7 |
| 20260507225016 | 65 | 307 | 12.2 | 25.2 | 0.00 | 0.00 | 0.00 | 26 | 1013.8 |
| 20260507224530 | 66 | 280 | 15.6 | 25.2 | 0.00 | 0.00 | 0.00 | 28 | 1013.9 |
| 20260507224018 | 66 | 312 | 17.4 | 24.3 | 0.00 | 0.00 | 0.00 | 27 | 1013.7 |
| 20260507223520 | 66 | 286 | 14.8 | 21.7 | 0.00 | 0.00 | 0.00 | 26 | 1013.8 |
| 20260507223030 | 66 | 283 | 13.9 | 22.6 | 0.00 | 0.00 | 0.00 | 29 | 1013.7 |
| 20260507222523 | 64 | 287 | 17.4 | 22.6 | 0.00 | 0.00 | 0.00 | 27 | 1013.8 |
| 20260507222016 | 66 | 302 | 13.0 | 23.5 | 0.00 | 0.00 | 0.00 | 27 | 1013.8 |
| 20260507221532 | 66 | 286 | 16.5 | 24.3 | 0.00 | 0.00 | 0.00 | 28 | 1013.8 |
| 20260507221016 | 66 | 279 | 15.6 | 25.2 | 0.00 | 0.00 | 0.00 | 28 | 1013.9 |
| 20260507220520 | 67 | 281 | 13.9 | 27.8 | 0.00 | 0.00 | 0.00 | 29 | 1014.0 |
| 20260507220031 | 67 | 279 | 17.4 | 27.8 | 0.00 | 0.00 | 0.00 | 27 | 1013.9 |
| 20260507215518 | 67 | 304 | 19.1 | 27.8 | 0.00 | 0.00 | 0.00 | 27 | 1014.0 |
| 20260507215016 | 67 | 273 | 16.5 | 27.8 | 0.00 | 0.00 | 0.00 | 28 | 1014.1 |
| 20260507214531 | 67 | 275 | 20.0 | 29.5 | 0.00 | 0.00 | 0.00 | 28 | 1014.1 |
| 20260507214016 | 67 | 303 | 20.0 | 29.5 | 0.00 | 0.00 | 0.00 | 27 | 1014.2 |
| 20260507213516 | 67 | 298 | 17.4 | 26.9 | 0.00 | 0.00 | 0.00 | 28 | 1014.2 |
| 20260507213039 | 66 | 313 | 20.0 | 26.1 | 0.00 | 0.00 | 0.00 | 27 | 1014.1 |
| 20260507212516 | 67 | 305 | 14.8 | 24.3 | 0.00 | 0.00 | 0.00 | 27 | 1014.2 |
| 20260507212022 | 66 | 304 | 18.2 | 26.9 | 0.00 | 0.00 | 0.00 | 28 | 1014.4 |
| 20260507211542 | 66 | 313 | 19.1 | 26.9 | 0.00 | 0.00 | 0.00 | 28 | 1014.4 |
| 20260507211014 | 66 | 284 | 17.4 | 23.5 | 0.00 | 0.00 | 0.00 | 27 | 1014.5 |
| 20260507210519 | 66 | 304 | 16.5 | 26.9 | 0.00 | 0.00 | 0.00 | 29 | 1014.6 |
| 20260507210033 | 65 | 312 | 17.4 | 32.2 | 0.00 | 0.00 | 0.00 | 27 | 1014.6 |
| 20260507205513 | 67 | 313 | 21.7 | 32.2 | 0.00 | 0.00 | 0.00 | 28 | 1014.8 |
| 20260507205016 | 67 | 276 | 19.1 | 28.7 | 0.00 | 0.00 | 0.00 | 27 | 1014.7 |
| 20260507204531 | 66 | 302 | 17.4 | 29.5 | 0.00 | 0.00 | 0.00 | 29 | 1014.7 |
| 20260507204016 | 67 | 300 | 19.1 | 31.3 | 0.00 | 0.00 | 0.00 | 28 | 1014.9 |
| 20260507203516 | 67 | 273 | 19.1 | 31.3 | 0.00 | 0.00 | 0.00 | 29 | 1014.9 |
| 20260507203032 | 67 | 281 | 20.0 | 31.3 | 0.00 | 0.00 | 0.00 | 28 | 1014.8 |
| 20260507202515 | 67 | 278 | 17.4 | 30.4 | 0.00 | 0.00 | 0.00 | 31 | 1015.0 |
| 20260507202020 | 66 | 291 | 17.4 | 30.4 | 0.00 | 0.00 | 0.00 | 29 | 1015.1 |
| 20260507201533 | 66 | 250 | 20.0 | 29.5 | 0.00 | 0.00 | 0.00 | 31 | 1014.9 |
| 20260507201016 | 66 | 253 | 15.6 | 26.1 | 0.00 | 0.00 | 0.00 | 32 | 1014.9 |
| 20260507200516 | 66 | 273 | 17.4 | 26.1 | 0.00 | 0.00 | 0.00 | 30 | 1015.1 |
| 20260507200031 | 66 | 285 | 13.9 | 24.3 | 0.00 | 0.00 | 0.00 | 32 | 1015.1 |
| 20260507195515 | 66 | 277 | 11.3 | 24.3 | 0.00 | 0.02 | 0.00 | 33 | 1015.3 |
| 20260507195017 | 66 | 298 | 15.6 | 26.9 | 0.00 | 0.02 | 0.00 | 31 | 1015.4 |
| 20260507194530 | 65 | 292 | 15.6 | 26.9 | 0.00 | 0.02 | 0.00 | 31 | 1015.5 |
| 20260507194016 | 65 | 271 | 19.1 | 26.9 | 0.00 | 0.02 | 0.00 | 33 | 1015.4 |
| 20260507193516 | 65 | 265 | 15.6 | 21.7 | 0.00 | 0.02 | 0.00 | 32 | 1015.5 |
| 20260507193031 | 65 | 264 | 12.2 | 21.7 | 0.00 | 0.02 | 0.00 | 32 | 1015.6 |
| 20260507192515 | 65 | 244 | 14.8 | 21.7 | 0.00 | 0.02 | 0.00 | 32 | 1015.7 |
| 20260507192016 | 65 | 263 | 16.5 | 21.7 | 0.00 | 0.02 | 0.00 | 32 | 1015.7 |
| 20260507191531 | 65 | 281 | 15.6 | 21.7 | 0.00 | 0.02 | 0.00 | 33 | 1015.9 |
| 20260507191020 | 65 | 314 | 13.9 | 20.9 | 0.00 | 0.02 | 0.00 | 33 | 1016.0 |
| 20260507190520 | 65 | 284 | 13.0 | 24.3 | 0.00 | 0.02 | 0.00 | 32 | 1016.0 |
| 20260507190030 | 64 | 262 | 16.5 | 24.3 | 0.00 | 0.02 | 0.00 | 33 | 1016.0 |
| 20260507185516 | 65 | 284 | 17.4 | 21.7 | 0.00 | 0.08 | 0.00 | 34 | 1016.1 |
| 20260507185016 | 64 | 261 | 13.9 | 20.9 | 0.00 | 0.08 | 0.00 | 35 | 1016.2 |
| 20260507184532 | 64 | 270 | 11.3 | 20.0 | 0.00 | 0.08 | 0.00 | 33 | 1016.2 |
| 20260507184020 | 64 | 255 | 12.2 | 23.5 | 0.00 | 0.08 | 0.00 | 33 | 1016.1 |
| 20260507183516 | 63 | 284 | 13.0 | 23.5 | 0.00 | 0.08 | 0.00 | 35 | 1016.3 |
| 20260507183031 | 64 | 251 | 13.9 | 23.5 | 0.00 | 0.08 | 0.00 | 35 | 1016.3 |
| 20260507182513 | 64 | 269 | 11.3 | 21.7 | 0.00 | 0.08 | 0.00 | 35 | 1016.4 |
| 20260507182016 | 64 | 241 | 12.2 | 21.7 | 0.00 | 0.08 | 0.00 | 35 | 1016.4 |
| 20260507181534 | 64 | 290 | 14.8 | 21.7 | 0.00 | 0.08 | 0.00 | 35 | 1016.4 |
| 20260507181019 | 63 | 281 | 13.0 | 19.1 | 0.00 | 0.08 | 0.00 | 37 | 1016.4 |
| 20260507180516 | 63 | 271 | 13.9 | 19.1 | 0.00 | 0.08 | 0.00 | 34 | 1016.4 |
| 20260507180031 | 63 | 265 | 13.9 | 18.2 | 0.00 | 0.08 | 0.00 | 35 | 1016.4 |
| 20260507175522 | 64 | 272 | 13.0 | 17.4 | 0.00 | 0.17 | 0.00 | 38 | 1016.4 |
| 20260507175016 | 63 | 269 | 12.2 | 19.1 | 0.00 | 0.17 | 0.00 | 39 | 1016.4 |
| 20260507174544 | 62 | 269 | 11.3 | 20.9 | 0.00 | 0.17 | 0.00 | 38 | 1016.6 |
| 20260507174019 | 61 | 250 | 13.0 | 20.9 | 0.00 | 0.17 | 0.00 | 40 | 1016.6 |
| 20260507173521 | 61 | 258 | 14.8 | 20.9 | 0.00 | 0.17 | 0.00 | 38 | 1016.7 |
| 20260507173030 | 60 | 256 | 13.0 | 20.9 | 0.00 | 0.17 | 0.00 | 44 | 1016.7 |
| 20260507172515 | 60 | 248 | 14.8 | 20.9 | 0.00 | 0.17 | 0.00 | 42 | 1016.7 |
| 20260507172021 | 60 | 236 | 15.6 | 20.9 | 0.00 | 0.17 | 0.00 | 41 | 1016.8 |
| 20260507171540 | 60 | 269 | 17.4 | 21.7 | 0.00 | 0.17 | 0.00 | 41 | 1016.8 |
| 20260507171015 | 60 | 263 | 16.5 | 21.7 | 0.00 | 0.17 | 0.00 | 40 | 1016.9 |
| 20260507170515 | 61 | 242 | 14.8 | 20.9 | 0.00 | 0.17 | 0.00 | 39 | 1016.9 |
| 20260507170032 | 60 | 265 | 14.8 | 19.1 | 0.00 | 0.17 | 0.00 | 39 | 1017.0 |
| 20260507165521 | 59 | 235 | 15.6 | 19.1 | 0.00 | 0.22 | 0.00 | 41 | 1017.1 |
| 20260507165017 | 59 | 238 | 14.8 | 19.1 | 0.00 | 0.22 | 0.00 | 44 | 1017.1 |
| 20260507164530 | 59 | 246 | 14.8 | 19.1 | 0.00 | 0.22 | 0.00 | 46 | 1017.2 |
| 20260507164016 | 58 | 240 | 13.9 | 19.1 | 0.00 | 0.22 | 0.00 | 45 | 1017.2 |
| 20260507163516 | 58 | 252 | 14.8 | 19.1 | 0.00 | 0.22 | 0.00 | 42 | 1017.3 |
| 20260507163030 | 57 | 257 | 13.9 | 19.1 | 0.00 | 0.22 | 0.00 | 46 | 1017.2 |
| 20260507162516 | 57 | 236 | 14.8 | 19.1 | 0.00 | 0.22 | 0.00 | 44 | 1017.3 |
| 20260507162016 | 57 | 264 | 14.8 | 18.2 | 0.00 | 0.22 | 0.00 | 47 | 1017.3 |
| 20260507161530 | 56 | 265 | 14.8 | 18.2 | 0.00 | 0.22 | 0.00 | 47 | 1017.5 |
| 20260507161015 | 55 | 248 | 13.9 | 17.4 | 0.00 | 0.22 | 0.00 | 46 | 1017.5 |
| 20260507160516 | 55 | 253 | 13.0 | 17.4 | 0.00 | 0.22 | 0.00 | 47 | 1017.5 |
| 20260507160037 | 54 | 257 | 12.2 | 17.4 | 0.00 | 0.22 | 0.00 | 48 | 1017.6 |
| 20260507155516 | 54 | 249 | 12.2 | 16.5 | 0.00 | 0.28 | 0.00 | 48 | 1017.6 |
| 20260507155014 | 54 | 230 | 11.3 | 15.6 | 0.00 | 0.28 | 0.00 | 49 | 1017.7 |
| 20260507154530 | 53 | 224 | 10.4 | 15.6 | 0.00 | 0.28 | 0.00 | 51 | 1017.8 |
| 20260507154015 | 52 | 213 | 11.3 | 15.6 | 0.00 | 0.28 | 0.00 | 50 | 1017.8 |
| 20260507153516 | 51 | 229 | 10.4 | 13.9 | 0.00 | 0.28 | 0.00 | 52 | 1017.7 |
| 20260507153032 | 51 | 200 | 11.3 | 15.6 | 0.00 | 0.28 | 0.00 | 50 | 1017.7 |
| 20260507152517 | 50 | 199 | 11.3 | 15.6 | 0.00 | 0.28 | 0.00 | 52 | 1017.6 |
| 20260507152018 | 50 | 212 | 10.4 | 14.8 | 0.00 | 0.28 | 0.00 | 52 | 1017.7 |
| 20260507151531 | 50 | 188 | 10.4 | 13.0 | 0.00 | 0.28 | 0.00 | 52 | 1017.7 |
| 20260507151016 | 50 | 209 | 9.6 | 15.6 | 0.00 | 0.28 | 0.00 | 54 | 1017.7 |
| 20260507150516 | 49 | 215 | 8.7 | 16.5 | 0.00 | 0.28 | 0.00 | 54 | 1017.7 |
| 20260507150036 | 49 | 239 | 11.3 | 16.5 | 0.00 | 0.28 | 0.00 | 53 | 1017.7 |
| 20260507145516 | 49 | 232 | 11.3 | 15.6 | 0.00 | 0.28 | 0.00 | 52 | 1017.6 |
| 20260507145020 | 48 | 237 | 11.3 | 17.4 | 0.00 | 0.28 | 0.00 | 52 | 1017.7 |
| 20260507144530 | 48 | 240 | 13.9 | 18.2 | 0.00 | 0.28 | 0.00 | 49 | 1017.6 |
| 20260507144016 | 47 | 220 | 12.2 | 18.2 | 0.00 | 0.28 | 0.00 | 52 | 1017.6 |
| 20260507143515 | 47 | 233 | 13.0 | 15.6 | 0.00 | 0.28 | 0.00 | 52 | 1017.7 |
| 20260507143032 | 47 | 228 | 12.2 | 17.4 | 0.00 | 0.28 | 0.00 | 53 | 1017.6 |
| 20260507142517 | 46 | 232 | 12.2 | 17.4 | 0.00 | 0.28 | 0.00 | 53 | 1017.5 |
| 20260507142019 | 45 | 228 | 12.2 | 16.5 | 0.00 | 0.28 | 0.00 | 53 | 1017.6 |
| 20260507141533 | 45 | 207 | 13.9 | 16.5 | 0.00 | 0.28 | 0.00 | 54 | 1017.4 |
| 20260507141018 | 44 | 237 | 13.0 | 16.5 | 0.00 | 0.28 | 0.00 | 54 | 1017.5 |
| 20260507140516 | 44 | 241 | 10.4 | 13.0 | 0.00 | 0.28 | 0.00 | 56 | 1017.5 |
| 20260507140041 | 43 | 235 | 7.8 | 14.8 | 0.00 | 0.28 | 0.00 | 56 | 1017.6 |
| 20260507135516 | 43 | 234 | 10.4 | 19.1 | 0.00 | 0.28 | 0.00 | 54 | 1017.6 |
| 20260507135018 | 43 | 235 | 13.0 | 20.9 | 0.00 | 0.28 | 0.00 | 54 | 1017.5 |
| 20260507134532 | 42 | 243 | 16.5 | 21.7 | 0.00 | 0.28 | 0.00 | 53 | 1017.4 |
| 20260507134016 | 42 | 237 | 16.5 | 24.3 | 0.00 | 0.28 | 0.00 | 53 | 1017.3 |
| 20260507133516 | 42 | 236 | 20.0 | 24.3 | 0.00 | 0.28 | 0.00 | 52 | 1017.2 |
| 20260507133034 | 42 | 246 | 17.4 | 21.7 | 0.00 | 0.28 | 0.00 | 53 | 1017.1 |
| 20260507132515 | 41 | 236 | 16.5 | 20.9 | 0.00 | 0.28 | 0.00 | 52 | 1017.2 |
| 20260507132015 | 41 | 242 | 15.6 | 19.1 | 0.00 | 0.28 | 0.00 | 54 | 1017.2 |
| 20260507131603 | 41 | 242 | 14.8 | 20.9 | 0.00 | 0.28 | 0.00 | 54 | 1017.3 |
| 20260507131016 | 40 | 247 | 15.6 | 20.9 | 0.00 | 0.28 | 0.00 | 55 | 1017.1 |
| 20260507130516 | 40 | 246 | 15.6 | 21.7 | 0.00 | 0.28 | 0.00 | 53 | 1017.1 |
| 20260507130029 | 40 | 244 | 16.5 | 21.7 | 0.00 | 0.28 | 0.00 | 53 | 1017.1 |
| 20260507125516 | 40 | 246 | 17.4 | 21.7 | 0.00 | 0.28 | 0.00 | 52 | 1017.1 |
| 20260507125015 | 40 | 246 | 16.5 | 20.9 | 0.00 | 0.28 | 0.00 | 52 | 1016.9 |
| 20260507124532 | 40 | 250 | 15.6 | 20.9 | 0.00 | 0.28 | 0.00 | 53 | 1016.8 |
| 20260507124017 | 39 | 235 | 15.6 | 19.1 | 0.00 | 0.28 | 0.00 | 55 | 1016.7 |
| 20260507123517 | 38 | 235 | 13.9 | 20.9 | 0.00 | 0.28 | 0.00 | 55 | 1016.6 |
| 20260507123041 | 38 | 240 | 13.9 | 20.9 | 0.00 | 0.28 | 0.00 | 55 | 1016.7 |
| 20260507122518 | 38 | 238 | 15.6 | 20.9 | 0.00 | 0.28 | 0.00 | 54 | 1016.6 |
| 20260507122016 | 38 | 237 | 15.6 | 21.7 | 0.00 | 0.28 | 0.00 | 56 | 1016.5 |
| 20260507121532 | 38 | 236 | 15.6 | 21.7 | 0.00 | 0.28 | 0.00 | 55 | 1016.5 |
| 20260507121016 | 38 | 243 | 17.4 | 21.7 | 0.00 | 0.28 | 0.00 | 55 | 1016.5 |
| 20260507120516 | 38 | 238 | 16.5 | 20.9 | 0.00 | 0.28 | 0.00 | 55 | 1016.5 |
| 20260507120035 | 38 | 234 | 15.6 | 20.9 | 0.00 | 0.28 | 0.00 | 55 | 1016.4 |
| 20260507115515 | 38 | 239 | 15.6 | 20.0 | 0.00 | 0.28 | 0.00 | 55 | 1016.3 |
| 20260507115015 | 38 | 234 | 14.8 | 21.7 | 0.00 | 0.28 | 0.00 | 55 | 1016.4 |
| 20260507114533 | 38 | 230 | 15.6 | 21.7 | 0.00 | 0.28 | 0.00 | 55 | 1016.4 |
| 20260507114020 | 38 | 236 | 14.8 | 19.1 | 0.00 | 0.28 | 0.00 | 54 | 1016.4 |
| 20260507113516 | 38 | 238 | 15.6 | 20.0 | 0.00 | 0.28 | 0.00 | 53 | 1016.4 |
| 20260507113059 | 38 | 237 | 15.6 | 20.0 | 0.00 | 0.28 | 0.00 | 54 | 1016.3 |
| 20260507112520 | 37 | 232 | 14.8 | 19.1 | 0.00 | 0.28 | 0.00 | 55 | 1016.3 |
| 20260507112016 | 37 | 236 | 14.8 | 19.1 | 0.00 | 0.28 | 0.00 | 56 | 1016.3 |
| 20260507111532 | 37 | 234 | 13.9 | 18.2 | 0.00 | 0.28 | 0.00 | 57 | 1016.4 |
| 20260507111016 | 37 | 233 | 12.2 | 17.4 | 0.00 | 0.28 | 0.00 | 57 | 1016.4 |
| 20260507110516 | 36 | 227 | 13.0 | 17.4 | 0.00 | 0.28 | 0.00 | 58 | 1016.4 |
| 20260507110036 | 36 | 235 | 13.0 | 15.6 | 0.00 | 0.28 | 0.00 | 58 | 1016.4 |
| 20260507105520 | 37 | 230 | 12.2 | 17.4 | 0.00 | 0.28 | 0.00 | 57 | 1016.4 |
| 20260507105016 | 37 | 240 | 13.9 | 19.1 | 0.00 | 0.28 | 0.00 | 56 | 1016.5 |
| 20260507104530 | 37 | 238 | 14.8 | 19.1 | 0.00 | 0.28 | 0.00 | 56 | 1016.5 |
| 20260507104014 | 38 | 238 | 14.8 | 20.0 | 0.00 | 0.28 | 0.00 | 55 | 1016.6 |
| 20260507103517 | 37 | 238 | 13.9 | 20.0 | 0.00 | 0.28 | 0.00 | 57 | 1016.6 |
| 20260507103033 | 37 | 234 | 14.8 | 20.0 | 0.00 | 0.28 | 0.00 | 57 | 1016.7 |
| 20260507102515 | 37 | 232 | 14.8 | 20.0 | 0.00 | 0.28 | 0.00 | 58 | 1016.6 |
| 20260507102017 | 37 | 233 | 14.8 | 20.9 | 0.00 | 0.28 | 0.00 | 58 | 1016.7 |
| 20260507101530 | 37 | 240 | 15.6 | 20.9 | 0.00 | 0.28 | 0.00 | 57 | 1016.7 |
| 20260507101015 | 36 | 236 | 14.8 | 20.9 | 0.00 | 0.28 | 0.00 | 59 | 1016.7 |
| 20260507100515 | 36 | 236 | 15.6 | 20.0 | 0.00 | 0.28 | 0.00 | 59 | 1016.8 |
| 20260507100042 | 36 | 234 | 15.6 | 20.0 | 0.00 | 0.28 | 0.00 | 60 | 1016.8 |
| 20260507095515 | 36 | 224 | 14.8 | 20.0 | 0.00 | 0.28 | 0.00 | 60 | 1016.7 |